Shell Lake, Canada
Current Conditions -  °F | °C
As of 3:00 PM on Monday 22 Dec 2014 (Local Time) from CYPA Reporting Station
Overcast Overcast  
Wind Chill: 17°   Ceiling: 1000
Heat Index: 23°   Visibility: 15mi
Dew Point: 21°   Wind: 5mph
Humidity: 93%   Direction: 320°NW
Pressure: 29.84"   Gusts: NA
Location:  53.3°N, 107.05°W
Report Text: CYPA 222100Z 32004KT 15SM OVC010 M05/M06 A2984 RMK ST8 CIG RAG SLP132
Loading
Personal Weather Stations






























Interactive Weather Map New forecast layout! Learn more

10-Day Weather Forecast

Advertisements
Track Severe Weather on mobile